Norman Wells Airport

CYVQ | YVQ

Norman Wells , Northwest Territories , Canada

Wednesday, October 23rd, 2019 | 23:03

Weather

CYVQ 240400Z 33004KT 270V340 30SM BKN082 BKN170 OVC210 M04/M05 A2949 RMK AC5AC1CI2 SLP994

Charts

No Charts Available

Gates

No Gates Available

Runways

1 Available

Events

No events for this airport


New event